Time;durP1;ratioP1;P1;durP2;ratioP2;P2;SDS_P1;SDS_P2;PMS_P1;PMS_P2;Temp;Humidity;BMP_temperature;BMP_pressure;BME280_temperature;BME280_humidity;BME280_pressure;Samples;Min_cycle;Max_cycle;Signal;HPM_P1;HPM_P2
2023/12/21 00:01:36;;;;;;;9.57;4.90;;;;;;;-144.57;100.00;62443.72;5033598;28;20037;-60
2023/12/21 00:04:03;;;;;;;6.85;4.65;;;;;;;-144.57;100.00;62443.72;5033508;28;20048;-60
2023/12/21 00:06:29;;;;;;;8.43;4.70;;;;;;;-144.57;100.00;62443.72;5033745;28;20045;-59
2023/12/21 00:08:55;;;;;;;7.43;5.00;;;;;;;-144.57;100.00;62443.72;5033738;28;20045;-60
2023/12/21 00:11:21;;;;;;;6.32;4.75;;;;;;;-144.57;100.00;62443.72;5033677;28;20053;-61
2023/12/21 00:13:47;;;;;;;9.30;5.20;;;;;;;-144.57;100.00;62443.72;5033667;28;20546;-60
2023/12/21 00:16:13;;;;;;;7.03;4.97;;;;;;;-144.57;100.00;62443.72;4999014;28;20152;-61
2023/12/21 00:18:39;;;;;;;9.32;4.93;;;;;;;-144.57;100.00;62443.72;5033556;28;20049;-61
2023/12/21 00:21:05;;;;;;;9.40;5.30;;;;;;;-144.57;100.00;62443.72;5033494;28;20405;-61
2023/12/21 00:23:31;;;;;;;7.65;4.95;;;;;;;-144.57;100.00;62443.72;5015530;28;20083;-61
2023/12/21 00:25:57;;;;;;;9.32;5.20;;;;;;;-144.57;100.00;62443.72;5015580;28;20493;-61
2023/12/21 00:28:23;;;;;;;8.30;4.93;;;;;;;-144.57;100.00;62443.72;5032239;28;20049;-60
2023/12/21 00:30:48;;;;;;;11.07;6.25;;;;;;;-144.57;100.00;62443.72;5032976;28;20557;-61
2023/12/21 00:33:14;;;;;;;10.07;5.30;;;;;;;-144.57;100.00;62443.72;5033225;28;20052;-60
2023/12/21 00:35:40;;;;;;;9.68;5.50;;;;;;;-144.57;100.00;62443.72;4995324;28;20490;-60
2023/12/21 00:38:06;;;;;;;17.27;10.88;;;;;;;-144.57;100.00;62443.72;5012133;28;20133;-61
2023/12/21 00:40:31;;;;;;;24.65;16.08;;;;;;;-144.57;100.00;62443.72;5012212;28;20033;-62
2023/12/21 00:42:57;;;;;;;20.10;13.30;;;;;;;-144.57;100.00;62443.72;5013141;28;20415;-61
2023/12/21 00:45:23;;;;;;;17.00;11.35;;;;;;;-144.57;100.00;62443.72;4995477;28;20052;-62
2023/12/21 00:47:49;;;;;;;16.17;10.05;;;;;;;-144.57;100.00;62443.72;5013227;28;20065;-60
2023/12/21 00:50:15;;;;;;;13.85;8.55;;;;;;;-144.57;100.00;62443.72;5013325;28;20045;-60
2023/12/21 00:52:41;;;;;;;11.25;7.35;;;;;;;-144.57;100.00;62443.72;5013006;28;20049;-61
2023/12/21 00:55:07;;;;;;;8.95;6.13;;;;;;;-144.57;100.00;62443.72;5011911;28;20407;-61
2023/12/21 00:57:33;;;;;;;10.27;5.88;;;;;;;-144.57;100.00;62443.72;5012808;28;20578;-59
2023/12/21 00:59:59;;;;;;;11.77;7.63;;;;;;;-144.57;100.00;62443.72;4995564;28;20125;-62
2023/12/21 01:02:25;;;;;;;10.23;7.03;;;;;;;-144.57;100.00;62443.72;5010987;28;20508;-60
2023/12/21 01:04:51;;;;;;;9.25;6.43;;;;;;;-144.57;100.00;62443.72;5011321;28;20037;-61
2023/12/21 01:07:17;;;;;;;10.60;7.15;;;;;;;-144.57;100.00;62443.72;5012792;28;20084;-60
2023/12/21 01:09:43;;;;;;;9.63;6.85;;;;;;;-144.57;100.00;62443.72;5011307;28;20062;-61
2023/12/21 01:12:09;;;;;;;10.52;6.10;;;;;;;-144.57;100.00;62443.72;5011114;28;20049;-60
2023/12/21 01:14:35;;;;;;;6.97;5.38;;;;;;;-144.57;100.00;62443.72;5012680;28;20076;-61
2023/12/21 01:17:00;;;;;;;10.27;5.70;;;;;;;-144.57;100.00;62443.72;5010655;28;20041;-61
2023/12/21 01:19:26;;;;;;;10.20;6.30;;;;;;;-144.57;100.00;62443.72;5012320;28;20518;-60
2023/12/21 01:21:52;;;;;;;8.05;5.90;;;;;;;-144.57;100.00;62443.72;5012581;28;20503;-59
2023/12/21 01:24:18;;;;;;;9.98;6.07;;;;;;;-144.57;100.00;62443.72;5011208;28;20041;-60
2023/12/21 01:26:44;;;;;;;11.45;6.75;;;;;;;-144.57;100.00;62443.72;5011059;28;20573;-61
2023/12/21 01:29:09;;;;;;;8.73;6.38;;;;;;;-144.57;100.00;62443.72;5012544;28;20042;-61
2023/12/21 01:31:35;;;;;;;9.90;6.38;;;;;;;-144.57;100.00;62443.72;4994944;28;20411;-61
2023/12/21 01:34:01;;;;;;;10.77;6.55;;;;;;;-144.57;100.00;62443.72;5018324;28;20107;-61
2023/12/21 01:36:28;;;;;;;12.35;7.90;;;;;;;-144.57;100.00;62443.72;5014337;28;20592;-60
2023/12/21 01:38:54;;;;;;;12.45;7.78;;;;;;;-144.57;100.00;62443.72;5013960;28;20095;-60
2023/12/21 01:41:20;;;;;;;15.65;7.70;;;;;;;-144.57;100.00;62443.72;5014003;28;20079;-61
2023/12/21 01:43:46;;;;;;;12.32;7.93;;;;;;;-144.57;100.00;62443.72;5031874;28;20415;-60
2023/12/21 01:46:12;;;;;;;12.02;7.45;;;;;;;-144.57;100.00;62443.72;5014237;28;20424;-59
2023/12/21 01:48:38;;;;;;;17.38;9.90;;;;;;;-144.57;100.00;62443.72;5014128;28;20045;-60
2023/12/21 01:51:04;;;;;;;17.02;9.68;;;;;;;-144.57;100.00;62443.72;5013999;28;20033;-61
2023/12/21 01:53:32;;;;;;;14.60;7.85;;;;;;;-144.57;100.00;62443.72;5031605;28;20483;-60
2023/12/21 01:55:58;;;;;;;14.63;8.00;;;;;;;-144.57;100.00;62443.72;5031385;28;20577;-60
2023/12/21 01:58:24;;;;;;;13.18;8.57;;;;;;;-144.57;100.00;62443.72;5031820;28;20041;-59
2023/12/21 02:00:50;;;;;;;9.88;7.18;;;;;;;-144.57;100.00;62443.72;5031919;28;20521;-61
2023/12/21 02:03:19;;;;;;;11.90;7.82;;;;;;;-144.57;100.00;62443.72;5031759;28;20474;-60
2023/12/21 02:05:45;;;;;;;11.33;7.47;;;;;;;-144.57;100.00;62443.72;5014216;28;20033;-60
2023/12/21 02:08:12;;;;;;;15.48;8.60;;;;;;;-144.57;100.00;62443.72;5013929;28;20053;-61
2023/12/21 02:10:39;;;;;;;13.05;7.50;;;;;;;-144.57;100.00;62443.72;5031643;28;20049;-59
2023/12/21 02:13:06;;;;;;;11.52;7.55;;;;;;;-144.57;100.00;62443.72;5013671;28;20128;-58
2023/12/21 02:15:32;;;;;;;12.05;7.32;;;;;;;-144.57;100.00;62443.72;5014165;28;20120;-61
2023/12/21 02:17:59;;;;;;;12.82;7.72;;;;;;;-144.57;100.00;62443.72;5031511;28;20477;-59
2023/12/21 02:20:45;;;;;;;10.25;6.70;;;;;;;-144.57;100.00;62443.72;5003376;28;20041;-60
2023/12/21 02:23:12;;;;;;;8.95;6.00;;;;;;;-144.57;100.00;62443.72;5013960;28;20506;-61
2023/12/21 02:25:37;;;;;;;9.60;5.95;;;;;;;-144.57;100.00;62443.72;5031681;28;20424;-59
2023/12/21 02:28:03;;;;;;;8.10;5.10;;;;;;;-144.57;100.00;62443.72;5031493;28;20045;-60
2023/12/21 02:30:29;;;;;;;6.30;4.95;;;;;;;-144.57;100.00;62443.72;5021208;28;20041;-62
2023/12/21 02:32:57;;;;;;;9.52;5.10;;;;;;;-144.57;100.00;62443.72;5051427;28;20486;-60
2023/12/21 02:35:22;;;;;;;6.93;4.72;;;;;;;-144.57;100.00;62443.72;5050612;28;20060;-60
2023/12/21 02:37:49;;;;;;;7.43;4.60;;;;;;;-144.57;100.00;62443.72;5051348;28;20049;-60
2023/12/21 02:40:15;;;;;;;7.13;5.07;;;;;;;-144.57;100.00;62443.72;5041132;28;20406;-59
2023/12/21 02:42:41;;;;;;;12.02;5.82;;;;;;;-144.57;100.00;62443.72;5031453;28;20060;-60
2023/12/21 02:45:07;;;;;;;8.18;4.78;;;;;;;-144.57;100.00;62443.72;5013137;28;20093;-60
2023/12/21 02:47:32;;;;;;;10.95;5.40;;;;;;;-144.57;100.00;62443.72;4997220;28;20526;-59
2023/12/21 02:49:58;;;;;;;6.93;4.70;;;;;;;-144.57;100.00;62443.72;4997557;28;20050;-59
2023/12/21 02:52:24;;;;;;;6.47;4.40;;;;;;;-144.57;100.00;62443.72;5035464;28;20509;-60
2023/12/21 02:54:49;;;;;;;6.70;4.20;;;;;;;-144.57;100.00;62443.72;5035264;28;20037;-60
2023/12/21 02:57:15;;;;;;;5.43;3.70;;;;;;;-144.57;100.00;62443.72;5035415;28;20042;-58
2023/12/21 02:59:44;;;;;;;7.28;3.92;;;;;;;-144.57;100.00;62443.72;5035286;28;20517;-61
2023/12/21 03:02:10;;;;;;;5.57;4.10;;;;;;;-144.57;100.00;62443.72;5035199;28;20558;-60
2023/12/21 03:04:36;;;;;;;6.40;3.70;;;;;;;-144.57;100.00;62443.72;5035247;28;20124;-59
2023/12/21 03:07:02;;;;;;;4.65;3.22;;;;;;;-144.57;100.00;62443.72;5035139;28;20498;-60
2023/12/21 03:09:28;;;;;;;4.63;2.92;;;;;;;-144.57;100.00;62443.72;5035145;28;20226;-59
2023/12/21 03:11:54;;;;;;;5.22;3.00;;;;;;;-144.57;100.00;62443.72;5034824;28;20491;-59
2023/12/21 03:14:22;;;;;;;4.10;2.90;;;;;;;-144.57;100.00;62443.72;5035145;28;20057;-59
2023/12/21 03:16:49;;;;;;;4.70;3.00;;;;;;;-144.57;100.00;62443.72;5015667;28;20055;-60
2023/12/21 03:19:15;;;;;;;3.90;2.78;;;;;;;-144.57;100.00;62443.72;5035114;28;20055;-60
2023/12/21 03:21:41;;;;;;;4.30;2.60;;;;;;;-144.57;100.00;62443.72;5017285;28;20120;-60
2023/12/21 03:24:07;;;;;;;4.22;2.40;;;;;;;-144.57;100.00;62443.72;5034921;28;20053;-60
2023/12/21 03:26:34;;;;;;;2.63;2.28;;;;;;;-144.57;100.00;62443.72;5034180;28;20124;-60
2023/12/21 03:29:00;;;;;;;4.38;2.40;;;;;;;-144.57;100.00;62443.72;5016938;28;20049;-61
2023/12/21 03:31:26;;;;;;;3.25;2.40;;;;;;;-144.57;100.00;62443.72;5016962;28;20192;-61
2023/12/21 03:33:52;;;;;;;3.70;2.47;;;;;;;-144.57;100.00;62443.72;5000462;28;20423;-61
2023/12/21 03:36:18;;;;;;;6.45;2.50;;;;;;;-144.57;100.00;62443.72;5033948;28;20076;-60
2023/12/21 03:38:44;;;;;;;2.83;2.30;;;;;;;-144.57;100.00;62443.72;5034578;28;20049;-60
2023/12/21 03:41:09;;;;;;;5.63;2.97;;;;;;;-144.57;100.00;62443.72;5016926;28;20052;-61
2023/12/21 03:43:35;;;;;;;3.67;2.30;;;;;;;-144.57;100.00;62443.72;5016666;28;20056;-60
2023/12/21 03:46:01;;;;;;;3.80;2.60;;;;;;;-144.57;100.00;62443.72;4999986;28;20124;-60
2023/12/21 03:48:27;;;;;;;4.75;2.47;;;;;;;-144.57;100.00;62443.72;5034367;28;20402;-61
2023/12/21 03:50:53;;;;;;;4.80;2.80;;;;;;;-144.57;100.00;62443.72;5033697;28;20041;-61
2023/12/21 03:53:19;;;;;;;2.78;2.10;;;;;;;-144.57;100.00;62443.72;5033420;28;20049;-60
2023/12/21 03:55:45;;;;;;;2.70;2.25;;;;;;;-144.57;100.00;62443.72;4998818;28;20087;-61
2023/12/21 03:58:11;;;;;;;3.20;2.42;;;;;;;-144.57;100.00;62443.72;5015749;28;20132;-62
2023/12/21 04:00:37;;;;;;;5.32;2.70;;;;;;;-144.57;100.00;62443.72;5015729;28;20049;-60
2023/12/21 04:03:02;;;;;;;3.13;2.33;;;;;;;-144.57;100.00;62443.72;5033338;28;20064;-60
2023/12/21 04:05:28;;;;;;;7.35;2.50;;;;;;;-144.57;100.00;62443.72;5014938;28;20046;-61
2023/12/21 04:07:54;;;;;;;3.30;2.05;;;;;;;-144.57;100.00;62443.72;5033578;28;20048;-60
2023/12/21 04:10:19;;;;;;;2.70;1.98;;;;;;;-144.57;100.00;62443.72;5034076;28;20091;-61
2023/12/21 04:12:45;;;;;;;2.60;2.15;;;;;;;-144.57;100.00;62443.72;5015944;28;20053;-59
2023/12/21 04:15:11;;;;;;;3.17;2.20;;;;;;;-144.57;100.00;62443.72;5016153;28;20327;-62
2023/12/21 04:17:37;;;;;;;2.20;2.00;;;;;;;-144.57;100.00;62443.72;5033378;28;20503;-59
2023/12/21 04:20:04;;;;;;;2.20;2.00;;;;;;;-144.57;100.00;62443.72;5032824;28;20081;-61
2023/12/21 04:22:31;;;;;;;2.65;2.10;;;;;;;-144.57;100.00;62443.72;4999193;28;20044;-59
2023/12/21 04:24:56;;;;;;;2.00;1.80;;;;;;;-144.57;100.00;62443.72;5016090;28;20041;-60
2023/12/21 04:27:23;;;;;;;5.57;2.10;;;;;;;-144.57;100.00;62443.72;5015556;28;20088;-60
2023/12/21 04:29:49;;;;;;;1.92;1.83;;;;;;;-144.57;100.00;62443.72;5033469;28;20038;-59
2023/12/21 04:32:15;;;;;;;2.13;1.92;;;;;;;-144.57;100.00;62443.72;5033252;28;20091;-60
2023/12/21 04:34:44;;;;;;;2.92;1.83;;;;;;;-144.57;100.00;62443.72;5016015;28;20057;-57
2023/12/21 04:37:14;;;;;;;3.15;1.70;;;;;;;-144.57;100.00;62443.72;4966712;28;20381;-60
2023/12/21 04:39:39;;;;;;;2.83;2.20;;;;;;;-144.57;100.00;62443.72;5031977;28;20039;-60
2023/12/21 04:42:06;;;;;;;4.80;2.53;;;;;;;-144.57;100.00;62443.72;5012096;28;20033;-60
2023/12/21 04:44:32;;;;;;;2.55;1.80;;;;;;;-144.57;100.00;62443.72;5031138;28;20079;-61
2023/12/21 04:46:57;;;;;;;3.22;1.98;;;;;;;-144.57;100.00;62443.72;5031552;28;20053;-60
2023/12/21 04:49:24;;;;;;;2.65;2.00;;;;;;;-144.57;100.00;62443.72;5015071;28;20033;-60
2023/12/21 04:51:50;;;;;;;2.05;1.88;;;;;;;-144.57;100.00;62443.72;5014807;28;20491;-58
2023/12/21 04:54:16;;;;;;;1.75;1.63;;;;;;;-144.57;100.00;62443.72;5015081;28;20188;-58
2023/12/21 04:56:42;;;;;;;2.20;1.90;;;;;;;-144.57;100.00;62443.72;5015086;28;20467;-61
2023/12/21 04:59:08;;;;;;;1.83;1.70;;;;;;;-144.57;100.00;62443.72;4998880;28;20132;-60
2023/12/21 05:01:34;;;;;;;2.67;2.00;;;;;;;-144.57;100.00;62443.72;5032545;28;20046;-60
2023/12/21 05:04:10;;;;;;;1.80;1.70;;;;;;;-144.57;100.00;62443.72;5032918;28;20056;-59
2023/12/21 05:06:35;;;;;;;2.80;1.80;;;;;;;-144.57;100.00;62443.72;5033093;28;20042;-59
2023/12/21 05:09:01;;;;;;;2.33;1.80;;;;;;;-144.57;100.00;62443.72;5032745;28;20049;-58
2023/12/21 05:11:27;;;;;;;2.20;1.90;;;;;;;-144.57;100.00;62443.72;5032865;28;20045;-59
2023/12/21 05:13:53;;;;;;;2.33;1.77;;;;;;;-144.57;100.00;62443.72;5014084;28;20128;-60
2023/12/21 05:16:19;;;;;;;2.47;1.85;;;;;;;-144.57;100.00;62443.72;5031246;28;20438;-58
2023/12/21 05:18:47;;;;;;;1.90;1.80;;;;;;;-144.57;100.00;62443.72;5014408;28;20511;-59
2023/12/21 05:21:13;;;;;;;2.85;1.90;;;;;;;-144.57;100.00;62443.72;5014699;28;20392;-60
2023/12/21 05:23:39;;;;;;;2.17;1.83;;;;;;;-144.57;100.00;62443.72;5014310;28;20506;-56
2023/12/21 05:26:12;;;;;;;2.47;1.75;;;;;;;-144.57;100.00;62443.72;5032225;28;20048;-61
2023/12/21 05:28:39;;;;;;;2.40;2.20;;;;;;;-144.57;100.00;62443.72;5014783;28;20049;-58
2023/12/21 05:31:08;;;;;;;2.47;1.90;;;;;;;-144.57;100.00;62443.72;5032232;28;20073;-59
2023/12/21 05:33:35;;;;;;;3.08;2.00;;;;;;;-144.57;100.00;62443.72;5031841;28;20057;-59
2023/12/21 05:36:02;;;;;;;2.10;1.90;;;;;;;-144.57;100.00;62443.72;5031793;28;20153;-60
2023/12/21 05:38:28;;;;;;;2.58;2.22;;;;;;;-144.57;100.00;62443.72;5026281;28;20068;-61
2023/12/21 05:40:54;;;;;;;2.38;2.08;;;;;;;-144.57;100.00;62443.72;5008312;28;20045;-60
2023/12/21 05:43:21;;;;;;;2.25;1.90;;;;;;;-144.57;100.00;62443.72;4989654;28;20095;-60
2023/12/21 05:45:47;;;;;;;2.72;2.03;;;;;;;-144.57;100.00;62443.72;5007860;28;20041;-61
2023/12/21 05:48:13;;;;;;;2.00;1.90;;;;;;;-144.57;100.00;62443.72;4975126;28;20045;-61
2023/12/21 05:50:38;;;;;;;3.75;2.17;;;;;;;-144.57;100.00;62443.72;5019306;28;20108;-61
2023/12/21 05:53:04;;;;;;;2.20;1.95;;;;;;;-144.57;100.00;62443.72;5009614;28;20049;-59
2023/12/21 05:55:31;;;;;;;3.38;2.00;;;;;;;-144.57;100.00;62443.72;5026513;28;20044;-63
2023/12/21 05:57:57;;;;;;;2.00;1.80;;;;;;;-144.57;100.00;62443.72;5031343;28;20045;-59
2023/12/21 06:00:23;;;;;;;2.08;1.80;;;;;;;-144.57;100.00;62443.72;5031688;28;20056;-62
2023/12/21 06:02:48;;;;;;;2.97;2.30;;;;;;;-144.57;100.00;62443.72;5031787;28;20099;-60
2023/12/21 06:05:14;;;;;;;2.85;2.22;;;;;;;-144.57;100.00;62443.72;5031232;28;20435;-61
2023/12/21 06:07:40;;;;;;;2.72;2.10;;;;;;;-144.57;100.00;62443.72;5031383;28;20048;-60
2023/12/21 06:10:08;;;;;;;2.05;1.70;;;;;;;-144.57;100.00;62443.72;5031769;28;20116;-61
2023/12/21 06:12:34;;;;;;;3.15;2.10;;;;;;;-144.57;100.00;62443.72;5030496;28;20041;-63
2023/12/21 06:15:00;;;;;;;1.98;1.70;;;;;;;-144.57;100.00;62443.72;5031132;28;20056;-60
2023/12/21 06:17:26;;;;;;;2.10;1.90;;;;;;;-144.57;100.00;62443.72;5029849;28;20045;-59
2023/12/21 06:19:52;;;;;;;2.35;2.00;;;;;;;-144.57;100.00;62443.72;5031472;28;20102;-61
2023/12/21 06:22:18;;;;;;;2.25;2.05;;;;;;;-144.57;100.00;62443.72;5030798;28;20042;-59
2023/12/21 06:24:44;;;;;;;2.97;2.20;;;;;;;-144.57;100.00;62443.72;5030746;28;20128;-59
2023/12/21 06:27:10;;;;;;;1.92;1.70;;;;;;;-144.57;100.00;62443.72;5031227;28;20099;-59
2023/12/21 06:29:35;;;;;;;2.00;1.85;;;;;;;-144.57;100.00;62443.72;5031127;28;20037;-60
2023/12/21 06:32:03;;;;;;;2.88;2.20;;;;;;;-144.57;100.00;62443.72;5031165;28;20048;-58
2023/12/21 06:34:29;;;;;;;2.15;1.70;;;;;;;-144.57;100.00;62443.72;4986883;28;20041;-59
2023/12/21 06:36:54;;;;;;;2.65;1.75;;;;;;;-144.57;100.00;62443.72;5030935;28;20040;-60
2023/12/21 06:39:20;;;;;;;5.20;1.90;;;;;;;-144.57;100.00;62443.72;5031313;28;20046;-60
2023/12/21 06:41:46;;;;;;;2.33;1.92;;;;;;;-144.57;100.00;62443.72;5030703;28;20041;-61
2023/12/21 06:44:12;;;;;;;2.03;1.80;;;;;;;-144.57;100.00;62443.72;5022785;28;20052;-61
2023/12/21 06:46:38;;;;;;;1.77;1.63;;;;;;;-144.57;100.00;62443.72;5031001;28;20040;-59
2023/12/21 06:49:04;;;;;;;2.78;1.77;;;;;;;-144.57;100.00;62443.72;5030636;28;20049;-60
2023/12/21 06:51:29;;;;;;;2.75;1.80;;;;;;;-144.57;100.00;62443.72;5030980;28;20038;-60
2023/12/21 06:53:55;;;;;;;2.63;1.65;;;;;;;-144.57;100.00;62443.72;5014985;28;20045;-61
2023/12/21 06:56:21;;;;;;;2.67;1.70;;;;;;;-144.57;100.00;62443.72;5030620;28;20073;-60
2023/12/21 06:58:47;;;;;;;2.38;2.13;;;;;;;-144.57;100.00;62443.72;5031331;28;20041;-60
2023/12/21 07:01:13;;;;;;;1.60;1.50;;;;;;;-144.57;100.00;62443.72;5029745;28;20042;-61
2023/12/21 07:03:38;;;;;;;1.95;1.70;;;;;;;-144.57;100.00;62443.72;5029538;28;20546;-61
2023/12/21 07:06:04;;;;;;;1.77;1.60;;;;;;;-144.57;100.00;62443.72;5029965;28;20060;-62
2023/12/21 07:08:30;;;;;;;2.47;1.63;;;;;;;-144.57;100.00;62443.72;5030984;28;20077;-61
2023/12/21 07:10:56;;;;;;;1.92;1.60;;;;;;;-144.57;100.00;62443.72;5031015;28;20411;-63
2023/12/21 07:13:22;;;;;;;1.80;1.70;;;;;;;-144.57;100.00;62443.72;5030380;28;20049;-62
2023/12/21 07:15:47;;;;;;;3.38;1.75;;;;;;;-144.57;100.00;62443.72;5024041;28;20044;-61
2023/12/21 07:18:13;;;;;;;3.67;1.75;;;;;;;-144.57;100.00;62443.72;5030513;28;20049;-60
2023/12/21 07:20:39;;;;;;;3.08;2.05;;;;;;;-144.57;100.00;62443.72;5013094;28;20093;-60
2023/12/21 07:23:05;;;;;;;3.22;2.00;;;;;;;-144.57;100.00;62443.72;5030701;28;20415;-60
2023/12/21 07:25:31;;;;;;;2.25;2.05;;;;;;;-144.57;100.00;62443.72;5014652;28;20499;-58
2023/12/21 07:27:57;;;;;;;2.50;1.70;;;;;;;-144.57;100.00;62443.72;5023470;28;20499;-59
2023/12/21 07:30:22;;;;;;;1.73;1.60;;;;;;;-144.57;100.00;62443.72;5029956;28;20037;-60
2023/12/21 07:32:48;;;;;;;2.08;1.67;;;;;;;-144.57;100.00;62443.72;5030574;28;20610;-59
2023/12/21 07:35:16;;;;;;;1.90;1.80;;;;;;;-144.57;100.00;62443.72;5030603;28;20065;-59
2023/12/21 07:37:42;;;;;;;3.45;2.00;;;;;;;-144.57;100.00;62443.72;5033316;28;20045;-61
2023/12/21 07:40:08;;;;;;;2.70;1.83;;;;;;;-144.57;100.00;62443.72;5034187;28;20049;-60
2023/12/21 07:42:34;;;;;;;2.55;1.80;;;;;;;-144.57;100.00;62443.72;4999339;28;20045;-61
2023/12/21 07:45:00;;;;;;;2.63;1.92;;;;;;;-144.57;100.00;62443.72;5016167;28;20045;-59
2023/12/21 07:47:26;;;;;;;2.63;1.92;;;;;;;-144.57;100.00;62443.72;5033925;28;20076;-61
2023/12/21 07:49:52;;;;;;;3.22;1.80;;;;;;;-144.57;100.00;62443.72;5034182;28;20392;-62
2023/12/21 07:52:18;;;;;;;2.45;1.95;;;;;;;-144.57;100.00;62443.72;5033826;28;20048;-61
2023/12/21 07:54:43;;;;;;;2.58;1.90;;;;;;;-144.57;100.00;62443.72;5034121;28;20041;-60
2023/12/21 07:57:12;;;;;;;3.15;1.95;;;;;;;-144.57;100.00;62443.72;5033798;28;20041;-59
2023/12/21 07:59:38;;;;;;;2.00;1.80;;;;;;;-144.57;100.00;62443.72;5033908;28;20590;-61
2023/12/21 08:02:04;;;;;;;2.15;1.90;;;;;;;-144.57;100.00;62443.72;5033729;28;20113;-61
2023/12/21 08:04:31;;;;;;;1.70;1.60;;;;;;;-144.57;100.00;62443.72;5033684;28;20049;-62
2023/12/21 08:06:56;;;;;;;2.55;1.88;;;;;;;-144.57;100.00;62443.72;5034174;28;20491;-61
2023/12/21 08:09:22;;;;;;;2.88;2.10;;;;;;;-144.57;100.00;62443.72;5053371;28;20537;-63
2023/12/21 08:11:48;;;;;;;2.10;1.83;;;;;;;-144.57;100.00;62443.72;5012044;28;20029;-60
2023/12/21 08:14:14;;;;;;;3.15;2.13;;;;;;;-144.57;100.00;62443.72;5028673;28;20051;-62
2023/12/21 08:16:40;;;;;;;2.40;1.88;;;;;;;-144.57;100.00;62443.72;5029242;28;20449;-62
2023/12/21 08:19:06;;;;;;;2.28;1.90;;;;;;;-144.57;100.00;62443.72;5031308;28;20069;-63
2023/12/21 08:21:31;;;;;;;2.85;2.15;;;;;;;-144.57;100.00;62443.72;5031255;28;20040;-59
2023/12/21 08:23:58;;;;;;;2.20;1.95;;;;;;;-144.57;100.00;62443.72;5031496;28;20407;-58
2023/12/21 08:26:24;;;;;;;3.10;2.30;;;;;;;-144.57;100.00;62443.72;5012446;28;20045;-59
2023/12/21 08:28:50;;;;;;;2.50;2.08;;;;;;;-144.57;100.00;62443.72;5029388;28;20084;-60
2023/12/21 08:31:25;;;;;;;2.42;2.10;;;;;;;-144.57;100.00;62443.72;5030017;28;20799;-59
2023/12/21 08:33:51;;;;;;;2.78;2.20;;;;;;;-144.57;100.00;62443.72;5012350;28;20041;-62
2023/12/21 08:36:17;;;;;;;2.63;2.03;;;;;;;-144.57;100.00;62443.72;5012235;28;20054;-62
2023/12/21 08:38:44;;;;;;;3.08;2.17;;;;;;;-144.57;100.00;62443.72;5029623;28;20045;-60
2023/12/21 08:41:10;;;;;;;3.75;2.30;;;;;;;-144.57;100.00;62443.72;5028886;28;20725;-63
2023/12/21 08:43:36;;;;;;;3.45;2.40;;;;;;;-144.57;100.00;62443.72;5027944;28;20046;-60
2023/12/21 08:46:03;;;;;;;4.20;2.30;;;;;;;-144.57;100.00;62443.72;5030103;28;20052;-60
2023/12/21 08:48:29;;;;;;;2.92;2.03;;;;;;;-144.57;100.00;62443.72;5029573;28;20049;-61
2023/12/21 08:50:55;;;;;;;2.53;2.25;;;;;;;-144.57;100.00;62443.72;5031286;28;20103;-62
2023/12/21 08:53:22;;;;;;;3.10;2.20;;;;;;;-144.57;100.00;62443.72;5013899;28;20484;-63
2023/12/21 08:55:47;;;;;;;2.50;2.30;;;;;;;-144.57;100.00;62443.72;4998497;28;20041;-63
2023/12/21 08:58:14;;;;;;;2.40;2.20;;;;;;;-144.57;100.00;62443.72;5032820;28;20064;-63
2023/12/21 09:00:39;;;;;;;2.08;1.90;;;;;;;-144.57;100.00;62443.72;5032326;28;20467;-62
2023/12/21 09:03:05;;;;;;;2.88;2.40;;;;;;;-144.57;100.00;62443.72;5032591;28;20053;-61
2023/12/21 09:05:31;;;;;;;2.45;2.05;;;;;;;-144.57;100.00;62443.72;5013115;28;20033;-65
2023/12/21 09:07:57;;;;;;;2.20;2.00;;;;;;;-144.57;100.00;62443.72;5014233;28;20052;-61
2023/12/21 09:10:23;;;;;;;2.95;2.22;;;;;;;-144.57;100.00;62443.72;5032152;28;20534;-64
2023/12/21 09:12:49;;;;;;;4.45;2.63;;;;;;;-144.57;100.00;62443.72;5031878;28;20494;-61
2023/12/21 09:15:14;;;;;;;4.38;2.50;;;;;;;-144.57;100.00;62443.72;5031538;28;20064;-63
2023/12/21 09:17:40;;;;;;;3.95;2.50;;;;;;;-144.57;100.00;62443.72;5021186;28;20055;-60
2023/12/21 09:20:08;;;;;;;4.20;2.53;;;;;;;-144.57;100.00;62443.72;5030445;28;20491;-63
2023/12/21 09:22:34;;;;;;;4.05;2.50;;;;;;;-144.57;100.00;62443.72;5022846;28;20057;-59
2023/12/21 09:25:02;;;;;;;2.95;2.28;;;;;;;-144.57;100.00;62443.72;5032120;28;20438;-63
2023/12/21 09:27:32;;;;;;;3.85;2.30;;;;;;;-144.57;100.00;62443.72;5031551;28;20343;-63
2023/12/21 09:29:58;;;;;;;3.60;2.70;;;;;;;-144.57;100.00;62443.72;5030476;28;20041;-62
2023/12/21 09:32:24;;;;;;;3.78;2.65;;;;;;;-144.57;100.00;62443.72;5031650;28;20056;-62
2023/12/21 09:34:49;;;;;;;3.78;2.60;;;;;;;-144.57;100.00;62443.72;5029886;28;20093;-62
2023/12/21 09:37:16;;;;;;;3.95;2.70;;;;;;;-144.57;100.00;62443.72;5031576;28;20046;-61
2023/12/21 09:39:42;;;;;;;4.60;2.65;;;;;;;-144.57;100.00;62443.72;5031963;28;20056;-60
2023/12/21 09:42:10;;;;;;;3.78;2.58;;;;;;;-144.57;100.00;62443.72;5035562;28;20393;-62
2023/12/21 09:44:37;;;;;;;3.45;2.72;;;;;;;-144.57;100.00;62443.72;5132872;23;20057;-63
2023/12/21 09:47:04;;;;;;;4.25;2.80;;;;;;;-144.57;100.00;62443.72;5035499;28;20077;-63
2023/12/21 09:49:36;;;;;;;3.90;3.00;;;;;;;-144.57;100.00;62443.72;5038355;28;20045;-62
2023/12/21 09:52:07;;;;;;;6.40;2.97;;;;;;;-144.57;100.00;62443.72;5029316;28;20052;-60
2023/12/21 09:54:34;;;;;;;3.90;2.72;;;;;;;-144.57;100.00;62443.72;5029949;28;20049;-61
2023/12/21 09:57:00;;;;;;;3.15;2.67;;;;;;;-144.57;100.00;62443.72;5030123;28;20516;-63
2023/12/21 09:59:30;;;;;;;3.38;2.80;;;;;;;-144.57;100.00;62443.72;5031056;28;20136;-62
2023/12/21 10:01:56;;;;;;;3.40;2.63;;;;;;;-144.57;100.00;62443.72;5031620;28;20094;-62
2023/12/21 10:04:22;;;;;;;2.75;2.30;;;;;;;-144.57;100.00;62443.72;5030466;28;20136;-62
2023/12/21 10:06:48;;;;;;;3.78;2.72;;;;;;;-144.57;100.00;62443.72;5029803;28;20420;-65
2023/12/21 10:09:15;;;;;;;3.53;2.40;;;;;;;-144.57;100.00;62443.72;5029568;28;20041;-61
2023/12/21 10:11:42;;;;;;;4.03;2.05;;;;;;;-144.57;100.00;62443.72;5028914;28;20041;-59
2023/12/21 10:14:19;;;;;;;2.85;1.95;;;;;;;-144.57;100.00;62443.72;5030038;28;20134;-62
2023/12/21 10:16:45;;;;;;;2.00;1.80;;;;;;;-144.57;100.00;62443.72;5049484;28;20443;-59
2023/12/21 10:19:12;;;;;;;2.28;1.65;;;;;;;-144.57;100.00;62443.72;5046375;28;20399;-59
2023/12/21 10:21:42;;;;;;;4.00;2.22;;;;;;;-144.57;100.00;62443.72;5030732;28;20038;-61
2023/12/21 10:24:08;;;;;;;2.78;1.80;;;;;;;-144.57;100.00;62443.72;5029724;28;20469;-60
2023/12/21 10:26:43;;;;;;;3.55;1.98;;;;;;;-144.57;100.00;62443.72;5031096;28;20124;-61
2023/12/21 10:29:13;;;;;;;4.65;1.90;;;;;;;-144.57;100.00;62443.72;5029252;28;20053;-57
2023/12/21 10:31:45;;;;;;;3.17;2.10;;;;;;;-144.57;100.00;62443.72;5031255;28;20057;-60
2023/12/21 10:34:12;;;;;;;3.30;2.25;;;;;;;-144.57;100.00;62443.72;5030387;28;20049;-62
2023/12/21 10:36:45;;;;;;;3.20;1.80;;;;;;;-144.57;100.00;62443.72;5029726;28;20037;-62
2023/12/21 10:39:12;;;;;;;4.43;2.40;;;;;;;-144.57;100.00;62443.72;5030785;28;20103;-60
2023/12/21 10:41:43;;;;;;;4.18;2.53;;;;;;;-144.57;100.00;62443.72;5029506;28;20495;-62
2023/12/21 10:44:10;;;;;;;6.00;2.47;;;;;;;-144.57;100.00;62443.72;5029323;28;20144;-60
2023/12/21 10:46:37;;;;;;;4.22;2.47;;;;;;;-144.57;100.00;62443.72;5030947;28;20052;-61
2023/12/21 10:49:04;;;;;;;3.90;2.50;;;;;;;-144.57;100.00;62443.72;5029291;28;20037;-60
2023/12/21 10:51:35;;;;;;;3.33;2.78;;;;;;;-144.57;100.00;62443.72;5031102;28;20041;-62
2023/12/21 10:54:04;;;;;;;4.00;2.83;;;;;;;-144.57;100.00;62443.72;5030998;28;20167;-62
2023/12/21 10:56:30;;;;;;;3.60;2.60;;;;;;;-144.57;100.00;62443.72;5029481;28;20029;-58
2023/12/21 10:58:56;;;;;;;3.95;2.60;;;;;;;-144.57;100.00;62443.72;5030230;28;20037;-60
2023/12/21 11:01:24;;;;;;;6.53;2.22;;;;;;;-144.57;100.00;62443.72;5012459;28;20529;-58
2023/12/21 11:03:50;;;;;;;4.68;2.80;;;;;;;-144.57;100.00;62443.72;5029124;28;20057;-56